Information Last Ob Photographs Calibration Meteogram Network Table Neighbors Monthly Summaries Observation History Wind Roses Custom Wind Roses Data Calendar Satellite Cloud Product Download

Satellite Cloud Product

NESDIS produces a Satellite Cloud Product (SCP) that supplements the ASOS ceilometer readings. This page merges the SCP data with the METAR observations for a given UTC date. Cloud level values are presented in feet above ground level. ECA represents estimated cloud amount expressed in percentage. An IEM Web Service provided the following JSON dataset for this page. Data is available for some sites back to 1993.

Year: Month: Day: Time Order:

 

SCP Valid UTCSatellite East SounderSatellite West SounderASOS METAR Report
Mid CloudsHigh CloudsLevels [ft]ECA [%]Mid CloudsHigh CloudsLevels [ft]ECA [%]Levels ftMETAR
0050ZSCT15000 - 250009SCT13000 - 230008FEW@4600
KFFL 250055Z AUTO 17008KT 10SM FEW046 04/M10 A2993 RMK A01
0150ZCLR-0CLR-0FEW@3300
SCT@4700
BKN@5500
KFFL 250155Z AUTO 16009KT 10SM FEW033 SCT047 BKN055 04/M10 A2990 RMK A01
0250ZCLR-0CLR-0FEW@5000
SCT@6000
KFFL 250255Z AUTO 15009KT 10SM FEW050 SCT060 03/M10 A2989 RMK A01
0350ZCLR-0CLR-0FEW@2400
FEW@3300
FEW@4200
KFFL 250355Z AUTO 16010KT 10SM FEW024 FEW033 FEW042 03/M09 A2987 RMK A01
0450ZCLR-0CLR-0CLR KFFL 250455Z AUTO 16007KT 10SM CLR 02/M09 A2985 RMK A01